sensor_id;sensor_type;location;lat;lon;timestamp;pressure;altitude;pressure_sealevel;temperature;humidity
79077;BME280;68477;42.698;23.342;2023-04-03T00:00:07;94785.72;;;8.03;58.48
79077;BME280;68477;42.698;23.342;2023-04-03T00:02:33;94785.94;;;7.94;58.74
79077;BME280;68477;42.698;23.342;2023-04-03T00:04:59;94785.72;;;8.03;59.10
79077;BME280;68477;42.698;23.342;2023-04-03T00:07:25;94782.59;;;8.08;58.57
79077;BME280;68477;42.698;23.342;2023-04-03T00:09:50;94778.19;;;8.00;58.62
79077;BME280;68477;42.698;23.342;2023-04-03T00:12:16;94770.53;;;7.99;58.66
79077;BME280;68477;42.698;23.342;2023-04-03T00:14:41;94768.91;;;7.89;58.87
79077;BME280;68477;42.698;23.342;2023-04-03T00:17:06;94762.91;;;7.65;59.93
79077;BME280;68477;42.698;23.342;2023-04-03T00:19:32;94763.06;;;7.71;59.20
79077;BME280;68477;42.698;23.342;2023-04-03T00:21:57;94760.09;;;7.82;59.27
79077;BME280;68477;42.698;23.342;2023-04-03T00:24:23;94754.34;;;7.87;58.73
79077;BME280;68477;42.698;23.342;2023-04-03T00:26:48;94760.38;;;7.96;58.86
79077;BME280;68477;42.698;23.342;2023-04-03T00:29:14;94753.59;;;8.17;57.95
79077;BME280;68477;42.698;23.342;2023-04-03T00:31:40;94758.69;;;8.11;58.36
79077;BME280;68477;42.698;23.342;2023-04-03T00:34:05;94759.22;;;7.98;59.06
79077;BME280;68477;42.698;23.342;2023-04-03T00:36:31;94762.84;;;7.89;59.01
79077;BME280;68477;42.698;23.342;2023-04-03T00:38:56;94759.63;;;7.71;59.79
79077;BME280;68477;42.698;23.342;2023-04-03T00:41:22;94762.38;;;7.77;59.17
79077;BME280;68477;42.698;23.342;2023-04-03T00:43:47;94753.25;;;7.81;59.25
79077;BME280;68477;42.698;23.342;2023-04-03T00:46:13;94764.19;;;7.85;59.19
79077;BME280;68477;42.698;23.342;2023-04-03T00:48:42;94767.31;;;7.72;60.38
79077;BME280;68477;42.698;23.342;2023-04-03T00:51:28;94770.97;;;7.39;61.79
79077;BME280;68477;42.698;23.342;2023-04-03T00:53:58;94770.75;;;7.56;61.31
79077;BME280;68477;42.698;23.342;2023-04-03T00:56:26;94765.38;;;7.42;61.47
79077;BME280;68477;42.698;23.342;2023-04-03T00:59:00;94767.19;;;7.41;61.85
79077;BME280;68477;42.698;23.342;2023-04-03T01:01:28;94772.44;;;7.49;61.34
79077;BME280;68477;42.698;23.342;2023-04-03T01:03:54;94771.09;;;7.53;60.68
79077;BME280;68477;42.698;23.342;2023-04-03T01:06:25;94770.28;;;7.61;60.86
79077;BME280;68477;42.698;23.342;2023-04-03T01:08:51;94769.44;;;7.69;60.45
79077;BME280;68477;42.698;23.342;2023-04-03T01:11:18;94777.31;;;7.61;60.42
79077;BME280;68477;42.698;23.342;2023-04-03T01:13:43;94770.94;;;7.71;60.56
79077;BME280;68477;42.698;23.342;2023-04-03T01:16:09;94780.41;;;7.64;60.11
79077;BME280;68477;42.698;23.342;2023-04-03T01:18:38;94777.97;;;7.46;60.79
79077;BME280;68477;42.698;23.342;2023-04-03T01:26:29;94773.91;;;7.19;61.53
79077;BME280;68477;42.698;23.342;2023-04-03T01:28:55;94771.13;;;7.05;62.69
79077;BME280;68477;42.698;23.342;2023-04-03T01:31:28;94775.69;;;7.11;62.76
79077;BME280;68477;42.698;23.342;2023-04-03T01:33:56;94776.34;;;7.29;61.87
79077;BME280;68477;42.698;23.342;2023-04-03T01:36:24;94775.38;;;7.22;62.63
79077;BME280;68477;42.698;23.342;2023-04-03T01:38:52;94773.09;;;7.19;62.55
79077;BME280;68477;42.698;23.342;2023-04-03T01:41:17;94775.31;;;6.73;63.38
79077;BME280;68477;42.698;23.342;2023-04-03T01:43:43;94775.59;;;6.54;65.25
79077;BME280;68477;42.698;23.342;2023-04-03T01:46:09;94774.97;;;6.60;64.67
79077;BME280;68477;42.698;23.342;2023-04-03T01:48:34;94770.72;;;6.67;64.02
79077;BME280;68477;42.698;23.342;2023-04-03T01:51:00;94774.66;;;6.79;63.71
79077;BME280;68477;42.698;23.342;2023-04-03T01:53:25;94774.66;;;6.79;62.67
79077;BME280;68477;42.698;23.342;2023-04-03T01:55:51;94773.72;;;6.80;63.98
79077;BME280;68477;42.698;23.342;2023-04-03T01:58:16;94780.97;;;6.52;64.50
79077;BME280;68477;42.698;23.342;2023-04-03T02:00:42;94779.88;;;6.21;66.25
79077;BME280;68477;42.698;23.342;2023-04-03T02:03:08;94785.09;;;6.21;65.31
79077;BME280;68477;42.698;23.342;2023-04-03T02:05:33;94780.09;;;6.27;66.53
79077;BME280;68477;42.698;23.342;2023-04-03T02:07:59;94774.91;;;6.43;65.20
79077;BME280;68477;42.698;23.342;2023-04-03T02:10:24;94779.88;;;6.12;65.96
79077;BME280;68477;42.698;23.342;2023-04-03T02:12:50;94787.69;;;5.87;67.51
79077;BME280;68477;42.698;23.342;2023-04-03T02:15:15;94789.63;;;6.10;66.12
79077;BME280;68477;42.698;23.342;2023-04-03T02:17:41;94786.78;;;5.96;67.28
79077;BME280;68477;42.698;23.342;2023-04-03T02:20:07;94790.56;;;5.75;67.80
79077;BME280;68477;42.698;23.342;2023-04-03T02:22:33;94783.72;;;5.74;67.81
79077;BME280;68477;42.698;23.342;2023-04-03T02:24:58;94785.47;;;5.92;66.88
79077;BME280;68477;42.698;23.342;2023-04-03T02:27:23;94773.91;;;5.94;67.48
79077;BME280;68477;42.698;23.342;2023-04-03T02:29:49;94773.47;;;5.81;68.03
79077;BME280;68477;42.698;23.342;2023-04-03T02:32:15;94771.50;;;6.01;65.74
79077;BME280;68477;42.698;23.342;2023-04-03T02:34:40;94761.97;;;6.26;64.64
79077;BME280;68477;42.698;23.342;2023-04-03T02:37:06;94760.66;;;6.30;64.28
79077;BME280;68477;42.698;23.342;2023-04-03T02:39:31;94762.81;;;6.42;63.93
79077;BME280;68477;42.698;23.342;2023-04-03T02:41:57;94759.09;;;6.53;64.39
79077;BME280;68477;42.698;23.342;2023-04-03T02:44:22;94757.31;;;6.54;64.52
79077;BME280;68477;42.698;23.342;2023-04-03T02:46:49;94758.78;;;6.48;64.32
79077;BME280;68477;42.698;23.342;2023-04-03T02:49:14;94756.63;;;6.43;63.99
79077;BME280;68477;42.698;23.342;2023-04-03T02:51:40;94761.56;;;6.04;66.36
79077;BME280;68477;42.698;23.342;2023-04-03T02:54:06;94750.59;;;5.67;66.98
79077;BME280;68477;42.698;23.342;2023-04-03T02:56:32;94750.47;;;5.50;68.58
79077;BME280;68477;42.698;23.342;2023-04-03T02:58:57;94756.47;;;5.69;68.31
79077;BME280;68477;42.698;23.342;2023-04-03T03:01:23;94748.00;;;6.01;66.71
79077;BME280;68477;42.698;23.342;2023-04-03T03:03:48;94744.09;;;6.05;66.52
79077;BME280;68477;42.698;23.342;2023-04-03T03:06:15;94750.75;;;5.99;66.78
79077;BME280;68477;42.698;23.342;2023-04-03T03:08:42;94745.78;;;5.88;66.72
79077;BME280;68477;42.698;23.342;2023-04-03T03:11:07;94749.47;;;6.03;65.76
79077;BME280;68477;42.698;23.342;2023-04-03T03:13:33;94745.13;;;6.12;66.02
79077;BME280;68477;42.698;23.342;2023-04-03T03:15:59;94748.53;;;6.12;65.48
79077;BME280;68477;42.698;23.342;2023-04-03T03:18:25;94740.44;;;6.24;66.07
79077;BME280;68477;42.698;23.342;2023-04-03T03:20:56;94735.03;;;6.25;65.90
79077;BME280;68477;42.698;23.342;2023-04-03T03:23:26;94734.78;;;6.02;65.91
79077;BME280;68477;42.698;23.342;2023-04-03T03:26:00;94736.44;;;6.03;66.82
79077;BME280;68477;42.698;23.342;2023-04-03T03:28:26;94737.94;;;5.80;67.73
79077;BME280;68477;42.698;23.342;2023-04-03T03:30:51;94743.31;;;5.78;67.15
79077;BME280;68477;42.698;23.342;2023-04-03T03:33:17;94738.50;;;5.92;66.70
79077;BME280;68477;42.698;23.342;2023-04-03T03:35:44;94735.44;;;6.04;66.88
79077;BME280;68477;42.698;23.342;2023-04-03T03:38:09;94749.13;;;5.98;67.04
79077;BME280;68477;42.698;23.342;2023-04-03T03:40:35;94748.31;;;5.72;68.12
79077;BME280;68477;42.698;23.342;2023-04-03T03:43:01;94751.25;;;5.69;68.12
79077;BME280;68477;42.698;23.342;2023-04-03T03:45:26;94755.06;;;5.82;66.64
79077;BME280;68477;42.698;23.342;2023-04-03T03:47:52;94748.25;;;5.90;66.44
79077;BME280;68477;42.698;23.342;2023-04-03T03:50:17;94743.28;;;6.04;66.50
79077;BME280;68477;42.698;23.342;2023-04-03T03:52:43;94740.28;;;5.91;66.16
79077;BME280;68477;42.698;23.342;2023-04-03T03:55:09;94745.03;;;5.96;66.91
79077;BME280;68477;42.698;23.342;2023-04-03T03:57:36;94750.19;;;6.22;65.16
79077;BME280;68477;42.698;23.342;2023-04-03T04:00:03;94745.63;;;6.16;65.76
79077;BME280;68477;42.698;23.342;2023-04-03T04:02:29;94743.97;;;6.15;66.73
79077;BME280;68477;42.698;23.342;2023-04-03T04:04:54;94746.88;;;6.11;65.36
79077;BME280;68477;42.698;23.342;2023-04-03T04:07:20;94745.28;;;5.84;67.19
79077;BME280;68477;42.698;23.342;2023-04-03T04:09:45;94750.75;;;5.73;67.81
79077;BME280;68477;42.698;23.342;2023-04-03T04:12:11;94737.94;;;5.88;66.91
79077;BME280;68477;42.698;23.342;2023-04-03T04:14:36;94741.50;;;6.05;65.58
79077;BME280;68477;42.698;23.342;2023-04-03T04:17:01;94749.59;;;5.94;66.07
79077;BME280;68477;42.698;23.342;2023-04-03T04:19:27;94754.41;;;5.89;67.39
79077;BME280;68477;42.698;23.342;2023-04-03T04:21:53;94764.47;;;5.75;66.49
79077;BME280;68477;42.698;23.342;2023-04-03T04:24:18;94764.16;;;6.04;67.25
79077;BME280;68477;42.698;23.342;2023-04-03T04:26:44;94764.16;;;6.04;66.36
79077;BME280;68477;42.698;23.342;2023-04-03T04:29:10;94766.25;;;6.35;65.11
79077;BME280;68477;42.698;23.342;2023-04-03T04:31:35;94763.75;;;6.25;65.25
79077;BME280;68477;42.698;23.342;2023-04-03T04:34:01;94760.63;;;6.13;65.96
79077;BME280;68477;42.698;23.342;2023-04-03T04:36:26;94761.22;;;6.07;67.48
79077;BME280;68477;42.698;23.342;2023-04-03T04:38:52;94767.81;;;5.34;70.14
79077;BME280;68477;42.698;23.342;2023-04-03T04:41:21;94769.69;;;5.06;70.93
79077;BME280;68477;42.698;23.342;2023-04-03T04:43:48;94770.41;;;5.34;70.84
79077;BME280;68477;42.698;23.342;2023-04-03T04:46:14;94776.94;;;5.64;69.47
79077;BME280;68477;42.698;23.342;2023-04-03T04:48:40;94772.63;;;5.72;69.82
79077;BME280;68477;42.698;23.342;2023-04-03T04:51:06;94791.75;;;5.81;68.26
79077;BME280;68477;42.698;23.342;2023-04-03T04:53:32;94791.03;;;5.97;68.08
79077;BME280;68477;42.698;23.342;2023-04-03T04:55:58;94790.81;;;6.16;66.92
79077;BME280;68477;42.698;23.342;2023-04-03T04:58:23;94786.75;;;6.22;67.15
79077;BME280;68477;42.698;23.342;2023-04-03T05:00:49;94785.97;;;6.29;66.29
79077;BME280;68477;42.698;23.342;2023-04-03T05:03:15;94790.00;;;6.16;66.17
79077;BME280;68477;42.698;23.342;2023-04-03T05:05:41;94800.00;;;5.94;68.21
79077;BME280;68477;42.698;23.342;2023-04-03T05:08:07;94798.16;;;6.12;66.75
79077;BME280;68477;42.698;23.342;2023-04-03T05:10:33;94808.44;;;6.22;66.31
79077;BME280;68477;42.698;23.342;2023-04-03T05:12:59;94810.84;;;6.07;68.65
79077;BME280;68477;42.698;23.342;2023-04-03T05:15:24;94814.47;;;6.15;66.79
79077;BME280;68477;42.698;23.342;2023-04-03T05:17:50;94814.75;;;6.03;67.21
79077;BME280;68477;42.698;23.342;2023-04-03T05:20:16;94815.66;;;5.94;67.05
79077;BME280;68477;42.698;23.342;2023-04-03T05:22:41;94832.69;;;5.80;67.60
79077;BME280;68477;42.698;23.342;2023-04-03T05:25:07;94833.94;;;5.76;68.94
79077;BME280;68477;42.698;23.342;2023-04-03T05:27:33;94822.31;;;6.15;66.39
79077;BME280;68477;42.698;23.342;2023-04-03T05:29:58;94814.41;;;6.40;66.26
79077;BME280;68477;42.698;23.342;2023-04-03T05:32:25;94818.34;;;6.45;65.38
79077;BME280;68477;42.698;23.342;2023-04-03T05:34:52;94815.59;;;6.46;65.80
79077;BME280;68477;42.698;23.342;2023-04-03T05:37:18;94815.88;;;6.35;67.11
79077;BME280;68477;42.698;23.342;2023-04-03T05:39:43;94807.88;;;6.45;67.17
79077;BME280;68477;42.698;23.342;2023-04-03T05:42:09;94807.44;;;6.49;64.51
79077;BME280;68477;42.698;23.342;2023-04-03T05:44:36;94808.34;;;6.82;64.62
79077;BME280;68477;42.698;23.342;2023-04-03T05:47:02;94806.72;;;6.81;64.44
79077;BME280;68477;42.698;23.342;2023-04-03T05:49:27;94805.41;;;7.01;64.23
79077;BME280;68477;42.698;23.342;2023-04-03T05:51:53;94800.69;;;6.97;63.17
79077;BME280;68477;42.698;23.342;2023-04-03T05:54:21;94802.63;;;6.87;63.40
79077;BME280;68477;42.698;23.342;2023-04-03T05:56:49;94799.97;;;6.79;63.54
79077;BME280;68477;42.698;23.342;2023-04-03T05:59:14;94799.19;;;6.86;64.04
79077;BME280;68477;42.698;23.342;2023-04-03T06:01:40;94790.72;;;6.92;64.02
79077;BME280;68477;42.698;23.342;2023-04-03T06:04:05;94791.22;;;7.20;63.97
79077;BME280;68477;42.698;23.342;2023-04-03T06:06:54;94799.38;;;6.93;65.01
79077;BME280;68477;42.698;23.342;2023-04-03T06:09:22;94799.72;;;7.14;64.89
79077;BME280;68477;42.698;23.342;2023-04-03T06:11:47;94787.28;;;7.24;63.89
79077;BME280;68477;42.698;23.342;2023-04-03T06:14:13;94784.34;;;7.19;63.35
79077;BME280;68477;42.698;23.342;2023-04-03T06:16:39;94776.84;;;7.33;63.54
79077;BME280;68477;42.698;23.342;2023-04-03T06:19:05;94778.50;;;7.25;63.79
79077;BME280;68477;42.698;23.342;2023-04-03T06:21:32;94768.50;;;7.05;64.63
79077;BME280;68477;42.698;23.342;2023-04-03T06:23:57;94766.72;;;7.05;64.66
79077;BME280;68477;42.698;23.342;2023-04-03T06:26:23;94775.34;;;6.89;66.26
79077;BME280;68477;42.698;23.342;2023-04-03T06:28:48;94781.56;;;7.13;64.08
79077;BME280;68477;42.698;23.342;2023-04-03T06:31:14;94790.06;;;7.47;62.37
79077;BME280;68477;42.698;23.342;2023-04-03T06:33:39;94788.13;;;7.25;62.97
79077;BME280;68477;42.698;23.342;2023-04-03T06:36:05;94790.41;;;7.04;64.39
79077;BME280;68477;42.698;23.342;2023-04-03T06:38:33;94788.63;;;7.37;63.26
79077;BME280;68477;42.698;23.342;2023-04-03T06:40:59;94804.28;;;7.45;63.11
79077;BME280;68477;42.698;23.342;2023-04-03T06:43:25;94801.38;;;7.48;63.27
79077;BME280;68477;42.698;23.342;2023-04-03T06:45:51;94802.81;;;7.58;61.99
79077;BME280;68477;42.698;23.342;2023-04-03T06:48:17;94802.66;;;7.36;62.07
79077;BME280;68477;42.698;23.342;2023-04-03T06:50:42;94788.78;;;7.27;63.37
79077;BME280;68477;42.698;23.342;2023-04-03T06:53:09;94786.50;;;7.48;62.41
79077;BME280;68477;42.698;23.342;2023-04-03T06:55:35;94795.28;;;7.47;62.30
79077;BME280;68477;42.698;23.342;2023-04-03T06:58:01;94796.44;;;7.53;62.16
79077;BME280;68477;42.698;23.342;2023-04-03T07:00:27;94798.34;;;7.92;61.32
79077;BME280;68477;42.698;23.342;2023-04-03T07:02:53;94795.53;;;8.01;60.07
79077;BME280;68477;42.698;23.342;2023-04-03T07:05:19;94799.97;;;8.01;61.56
79077;BME280;68477;42.698;23.342;2023-04-03T07:07:45;94797.53;;;7.91;61.30
79077;BME280;68477;42.698;23.342;2023-04-03T07:10:10;94790.84;;;7.80;61.34
79077;BME280;68477;42.698;23.342;2023-04-03T07:12:36;94790.72;;;8.37;60.67
79077;BME280;68477;42.698;23.342;2023-04-03T07:15:04;94786.25;;;8.46;59.11
79077;BME280;68477;42.698;23.342;2023-04-03T07:17:30;94777.47;;;8.23;59.22
79077;BME280;68477;42.698;23.342;2023-04-03T07:19:56;94780.06;;;8.31;61.37
79077;BME280;68477;42.698;23.342;2023-04-03T07:22:22;94774.34;;;8.74;59.18
79077;BME280;68477;42.698;23.342;2023-04-03T07:24:47;94778.38;;;8.85;59.13
79077;BME280;68477;42.698;23.342;2023-04-03T07:27:13;94771.78;;;8.89;57.96
79077;BME280;68477;42.698;23.342;2023-04-03T07:29:38;94778.72;;;9.28;58.46
79077;BME280;68477;42.698;23.342;2023-04-03T07:32:04;94779.94;;;9.17;56.70
79077;BME280;68477;42.698;23.342;2023-04-03T07:34:31;94777.56;;;9.30;56.52
79077;BME280;68477;42.698;23.342;2023-04-03T07:36:56;94778.06;;;9.49;57.03
79077;BME280;68477;42.698;23.342;2023-04-03T07:39:22;94780.84;;;9.47;59.03
79077;BME280;68477;42.698;23.342;2023-04-03T07:41:48;94774.38;;;9.58;56.23
79077;BME280;68477;42.698;23.342;2023-04-03T07:44:13;94771.75;;;9.58;56.82
79077;BME280;68477;42.698;23.342;2023-04-03T07:46:40;94769.00;;;10.04;54.81
79077;BME280;68477;42.698;23.342;2023-04-03T07:49:07;94756.94;;;9.80;56.36
79077;BME280;68477;42.698;23.342;2023-04-03T07:51:33;94753.84;;;9.76;56.66
79077;BME280;68477;42.698;23.342;2023-04-03T07:53:58;94758.97;;;9.40;56.64
79077;BME280;68477;42.698;23.342;2023-04-03T07:56:24;94755.44;;;9.48;57.15
79077;BME280;68477;42.698;23.342;2023-04-03T07:58:50;94757.00;;;9.72;56.43
79077;BME280;68477;42.698;23.342;2023-04-03T08:01:16;94751.91;;;9.55;57.43
79077;BME280;68477;42.698;23.342;2023-04-03T08:03:41;94745.56;;;9.50;58.63
79077;BME280;68477;42.698;23.342;2023-04-03T08:06:08;94747.88;;;9.82;57.28
79077;BME280;68477;42.698;23.342;2023-04-03T08:08:34;94745.34;;;10.18;55.65
79077;BME280;68477;42.698;23.342;2023-04-03T08:11:01;94751.06;;;9.92;57.00
79077;BME280;68477;42.698;23.342;2023-04-03T08:13:28;94742.41;;;10.22;56.73
79077;BME280;68477;42.698;23.342;2023-04-03T08:15:55;94734.97;;;10.25;55.79
79077;BME280;68477;42.698;23.342;2023-04-03T08:18:23;94736.84;;;9.87;57.56
79077;BME280;68477;42.698;23.342;2023-04-03T08:20:50;94736.00;;;10.16;56.04
79077;BME280;68477;42.698;23.342;2023-04-03T08:23:17;94733.75;;;10.13;56.45
79077;BME280;68477;42.698;23.342;2023-04-03T08:25:42;94738.38;;;9.96;56.16
79077;BME280;68477;42.698;23.342;2023-04-03T08:28:09;94730.75;;;10.16;56.31
79077;BME280;68477;42.698;23.342;2023-04-03T08:30:38;94728.59;;;10.05;57.08
79077;BME280;68477;42.698;23.342;2023-04-03T08:33:04;94741.38;;;10.37;54.87
79077;BME280;68477;42.698;23.342;2023-04-03T08:35:30;94739.53;;;10.53;54.39
79077;BME280;68477;42.698;23.342;2023-04-03T08:37:55;94732.75;;;10.43;53.87
79077;BME280;68477;42.698;23.342;2023-04-03T08:40:22;94726.56;;;10.66;52.97
79077;BME280;68477;42.698;23.342;2023-04-03T08:43:05;94724.25;;;10.77;52.82
79077;BME280;68477;42.698;23.342;2023-04-03T08:45:45;94713.91;;;10.76;53.02
79077;BME280;68477;42.698;23.342;2023-04-03T08:48:24;94715.19;;;11.01;53.04
79077;BME280;68477;42.698;23.342;2023-04-03T08:50:56;94714.22;;;10.66;53.39
79077;BME280;68477;42.698;23.342;2023-04-03T08:53:26;94706.97;;;10.90;53.32
79077;BME280;68477;42.698;23.342;2023-04-03T08:55:56;94708.84;;;11.17;52.63
79077;BME280;68477;42.698;23.342;2023-04-03T08:58:28;94705.47;;;10.81;52.99
79077;BME280;68477;42.698;23.342;2023-04-03T09:03:23;94702.94;;;11.15;51.94
79077;BME280;68477;42.698;23.342;2023-04-03T09:05:58;94698.72;;;11.21;51.00
79077;BME280;68477;42.698;23.342;2023-04-03T09:08:45;94686.19;;;11.44;50.69
79077;BME280;68477;42.698;23.342;2023-04-03T09:14:07;94685.41;;;11.50;51.11
79077;BME280;68477;42.698;23.342;2023-04-03T09:21:39;94682.31;;;11.75;49.86
79077;BME280;68477;42.698;23.342;2023-04-03T09:24:10;94683.94;;;11.76;49.81
79077;BME280;68477;42.698;23.342;2023-04-03T09:26:45;94665.47;;;11.69;50.38
79077;BME280;68477;42.698;23.342;2023-04-03T09:29:16;94671.97;;;12.01;50.32
79077;BME280;68477;42.698;23.342;2023-04-03T09:31:44;94669.69;;;11.91;50.64
79077;BME280;68477;42.698;23.342;2023-04-03T09:34:23;94663.25;;;12.01;50.80
79077;BME280;68477;42.698;23.342;2023-04-03T09:36:53;94666.53;;;12.09;51.69
79077;BME280;68477;42.698;23.342;2023-04-03T09:39:21;94656.38;;;12.06;50.22
79077;BME280;68477;42.698;23.342;2023-04-03T09:44:36;94663.63;;;12.45;50.37
79077;BME280;68477;42.698;23.342;2023-04-03T09:49:49;94658.47;;;12.17;51.20
79077;BME280;68477;42.698;23.342;2023-04-03T09:52:25;94645.94;;;12.33;49.87
79077;BME280;68477;42.698;23.342;2023-04-03T09:54:51;94646.94;;;12.25;49.97
79077;BME280;68477;42.698;23.342;2023-04-03T09:57:17;94646.13;;;12.31;50.44
79077;BME280;68477;42.698;23.342;2023-04-03T10:00:04;94640.44;;;12.28;51.29
79077;BME280;68477;42.698;23.342;2023-04-03T10:04:59;94637.53;;;12.09;51.88
79077;BME280;68477;42.698;23.342;2023-04-03T10:07:35;94642.44;;;12.19;49.94
79077;BME280;68477;42.698;23.342;2023-04-03T10:12:39;94635.47;;;11.98;50.94
79077;BME280;68477;42.698;23.342;2023-04-03T10:15:12;94637.88;;;12.00;51.67
79077;BME280;68477;42.698;23.342;2023-04-03T10:23:19;94626.25;;;11.81;52.58
79077;BME280;68477;42.698;23.342;2023-04-03T10:26:05;94630.16;;;11.91;51.62
79077;BME280;68477;42.698;23.342;2023-04-03T10:31:49;94619.09;;;11.75;51.54
79077;BME280;68477;42.698;23.342;2023-04-03T10:34:24;94616.78;;;11.93;51.38
79077;BME280;68477;42.698;23.342;2023-04-03T10:42:38;94601.88;;;11.72;51.63
79077;BME280;68477;42.698;23.342;2023-04-03T10:53:21;94588.41;;;11.95;51.39
79077;BME280;68477;42.698;23.342;2023-04-03T10:56:03;94597.78;;;12.04;51.59
79077;BME280;68477;42.698;23.342;2023-04-03T10:58:41;94596.59;;;12.13;51.88
79077;BME280;68477;42.698;23.342;2023-04-03T11:01:31;94597.19;;;12.09;50.22
79077;BME280;68477;42.698;23.342;2023-04-03T11:04:00;94598.44;;;12.13;50.37
79077;BME280;68477;42.698;23.342;2023-04-03T11:06:40;94594.25;;;11.84;51.08
79077;BME280;68477;42.698;23.342;2023-04-03T11:09:22;94593.84;;;11.80;51.00
79077;BME280;68477;42.698;23.342;2023-04-03T11:11:53;94600.72;;;11.81;53.25
79077;BME280;68477;42.698;23.342;2023-04-03T11:14:35;94607.91;;;11.66;54.03
79077;BME280;68477;42.698;23.342;2023-04-03T11:17:08;94609.50;;;11.60;54.45
79077;BME280;68477;42.698;23.342;2023-04-03T11:19:43;94610.59;;;11.38;55.27
79077;BME280;68477;42.698;23.342;2023-04-03T11:24:39;94601.78;;;11.24;54.87
79077;BME280;68477;42.698;23.342;2023-04-03T11:27:17;94602.75;;;11.17;56.37
79077;BME280;68477;42.698;23.342;2023-04-03T11:29:47;94606.81;;;11.19;59.17
79077;BME280;68477;42.698;23.342;2023-04-03T11:32:35;94608.44;;;11.20;57.80
79077;BME280;68477;42.698;23.342;2023-04-03T11:35:08;94607.28;;;11.01;59.44
79077;BME280;68477;42.698;23.342;2023-04-03T11:37:38;94606.56;;;11.14;59.81
79077;BME280;68477;42.698;23.342;2023-04-03T11:43:04;94603.19;;;10.71;61.28
79077;BME280;68477;42.698;23.342;2023-04-03T11:48:06;94601.78;;;10.96;62.43
79077;BME280;68477;42.698;23.342;2023-04-03T12:24:23;94607.81;;;9.75;72.99
79077;BME280;68477;42.698;23.342;2023-04-03T12:41:15;94582.28;;;9.54;74.99
79077;BME280;68477;42.698;23.342;2023-04-03T12:46:51;94577.56;;;9.35;77.01
79077;BME280;68477;42.698;23.342;2023-04-03T12:51:52;94571.31;;;9.36;75.62
79077;BME280;68477;42.698;23.342;2023-04-03T12:56:46;94563.81;;;9.33;77.05
79077;BME280;68477;42.698;23.342;2023-04-03T12:59:23;94565.47;;;9.19;78.42
79077;BME280;68477;42.698;23.342;2023-04-03T13:01:57;94559.56;;;9.17;78.77
79077;BME280;68477;42.698;23.342;2023-04-03T13:04:23;94560.22;;;9.19;79.25
79077;BME280;68477;42.698;23.342;2023-04-03T13:06:50;94569.97;;;8.96;79.25
79077;BME280;68477;42.698;23.342;2023-04-03T13:09:22;94568.16;;;9.26;79.94
79077;BME280;68477;42.698;23.342;2023-04-03T13:11:50;94570.84;;;8.88;80.61
79077;BME280;68477;42.698;23.342;2023-04-03T13:14:21;94580.16;;;8.91;81.08
79077;BME280;68477;42.698;23.342;2023-04-03T13:16:58;94567.47;;;8.80;80.04
79077;BME280;68477;42.698;23.342;2023-04-03T13:19:26;94557.00;;;8.80;81.47
79077;BME280;68477;42.698;23.342;2023-04-03T13:21:59;94564.22;;;8.78;80.58
79077;BME280;68477;42.698;23.342;2023-04-03T13:24:26;94560.97;;;8.75;82.31
79077;BME280;68477;42.698;23.342;2023-04-03T13:26:54;94560.72;;;8.85;81.09
79077;BME280;68477;42.698;23.342;2023-04-03T13:29:40;94552.19;;;8.83;81.74
79077;BME280;68477;42.698;23.342;2023-04-03T13:32:13;94545.25;;;8.75;80.64
79077;BME280;68477;42.698;23.342;2023-04-03T13:34:43;94560.34;;;8.73;81.33
79077;BME280;68477;42.698;23.342;2023-04-03T13:37:32;94553.81;;;8.69;81.46
79077;BME280;68477;42.698;23.342;2023-04-03T13:39:59;94551.13;;;8.78;79.09
79077;BME280;68477;42.698;23.342;2023-04-03T13:42:31;94552.09;;;8.62;80.78
79077;BME280;68477;42.698;23.342;2023-04-03T13:45:22;94550.00;;;8.72;80.82
79077;BME280;68477;42.698;23.342;2023-04-03T13:47:50;94552.78;;;8.56;81.25
79077;BME280;68477;42.698;23.342;2023-04-03T13:50:22;94540.50;;;8.56;81.45
79077;BME280;68477;42.698;23.342;2023-04-03T13:52:55;94548.34;;;8.56;82.09
79077;BME280;68477;42.698;23.342;2023-04-03T13:55:33;94539.22;;;8.52;81.98
79077;BME280;68477;42.698;23.342;2023-04-03T13:58:16;94535.50;;;8.46;82.66
79077;BME280;68477;42.698;23.342;2023-04-03T14:04:16;94531.16;;;8.39;83.71
79077;BME280;68477;42.698;23.342;2023-04-03T14:06:43;94537.00;;;8.64;84.06
79077;BME280;68477;42.698;23.342;2023-04-03T14:09:10;94534.38;;;8.64;84.75
79077;BME280;68477;42.698;23.342;2023-04-03T14:11:35;94526.97;;;8.67;83.94
79077;BME280;68477;42.698;23.342;2023-04-03T14:14:09;94529.38;;;8.54;83.02
79077;BME280;68477;42.698;23.342;2023-04-03T14:16:40;94522.34;;;8.55;83.44
79077;BME280;68477;42.698;23.342;2023-04-03T14:19:06;94527.03;;;8.59;83.46
79077;BME280;68477;42.698;23.342;2023-04-03T14:21:32;94526.94;;;8.53;83.56
79077;BME280;68477;42.698;23.342;2023-04-03T14:23:59;94527.00;;;8.44;82.34
79077;BME280;68477;42.698;23.342;2023-04-03T14:26:24;94525.56;;;8.42;82.88
79077;BME280;68477;42.698;23.342;2023-04-03T14:28:53;94522.16;;;8.33;83.41
79077;BME280;68477;42.698;23.342;2023-04-03T14:31:20;94525.31;;;8.29;82.81
79077;BME280;68477;42.698;23.342;2023-04-03T14:33:46;94521.41;;;8.48;82.54
79077;BME280;68477;42.698;23.342;2023-04-03T14:36:22;94526.81;;;8.23;84.11
79077;BME280;68477;42.698;23.342;2023-04-03T14:38:49;94518.91;;;8.31;83.29
79077;BME280;68477;42.698;23.342;2023-04-03T14:41:17;94518.97;;;8.23;85.25
79077;BME280;68477;42.698;23.342;2023-04-03T14:43:45;94517.63;;;8.27;84.52
79077;BME280;68477;42.698;23.342;2023-04-03T14:46:16;94517.69;;;8.19;85.03
79077;BME280;68477;42.698;23.342;2023-04-03T14:48:44;94517.34;;;8.22;83.63
79077;BME280;68477;42.698;23.342;2023-04-03T14:51:13;94510.09;;;8.24;84.06
79077;BME280;68477;42.698;23.342;2023-04-03T14:53:41;94511.28;;;8.22;84.29
79077;BME280;68477;42.698;23.342;2023-04-03T14:56:28;94501.78;;;8.21;85.02
79077;BME280;68477;42.698;23.342;2023-04-03T14:58:59;94508.78;;;8.28;83.68